Time;durP1;ratioP1;P1;durP2;ratioP2;P2;SDS_P1;SDS_P2;PMS_P1;PMS_P2;Temp;Humidity;BMP_temperature;BMP_pressure;BME280_temperature;BME280_humidity;BME280_pressure;Samples;Min_cycle;Max_cycle;Signal;HPM_P1;HPM_P2
2022/06/16 00:01:01;;;;;;;3.60;1.33;;;16.40;99.90;;;;;;4991043;28;20033;-74
2022/06/16 00:03:27;;;;;;;3.50;1.60;;;16.30;99.90;;;;;;4981509;28;20035;-76
2022/06/16 00:05:53;;;;;;;4.00;1.42;;;16.30;99.90;;;;;;4985885;28;20049;-74
2022/06/16 00:08:19;;;;;;;3.97;1.55;;;16.30;99.90;;;;;;4986409;28;20375;-75
2022/06/16 00:13:32;;;;;;;4.30;1.77;;;16.30;99.90;;;;;;4986724;28;20311;-75
2022/06/16 00:15:58;;;;;;;5.60;1.80;;;16.20;99.90;;;;;;4997642;28;20089;-74
2022/06/16 00:18:24;;;;;;;3.90;1.52;;;16.20;99.90;;;;;;4983287;28;20023;-75
2022/06/16 00:20:50;;;;;;;2.83;1.45;;;16.20;99.90;;;;;;4986963;28;20069;-74
2022/06/16 00:23:16;;;;;;;3.00;1.70;;;16.20;99.90;;;;;;4988668;28;20058;-73
2022/06/16 00:25:42;;;;;;;4.75;2.08;;;16.10;99.90;;;;;;4987413;28;20030;-75
2022/06/16 00:28:08;;;;;;;4.25;1.52;;;16.10;99.90;;;;;;4988876;28;20045;-74
2022/06/16 00:30:34;;;;;;;4.07;1.40;;;16.10;99.90;;;;;;4978353;28;20027;-74
2022/06/16 00:32:59;;;;;;;6.85;2.10;;;16.00;99.90;;;;;;4986091;28;20034;-74
2022/06/16 00:35:25;;;;;;;3.15;1.65;;;16.00;99.90;;;;;;4987184;28;20034;-74
2022/06/16 00:37:51;;;;;;;3.35;1.70;;;15.90;99.90;;;;;;4985848;28;20043;-74
2022/06/16 00:40:16;;;;;;;3.78;1.50;;;15.90;99.90;;;;;;4987592;28;20062;-74
2022/06/16 00:42:46;;;;;;;3.33;1.65;;;15.90;99.90;;;;;;4982637;28;20116;-73
2022/06/16 00:45:49;;;;;;;3.55;1.52;;;15.80;99.90;;;;;;4986627;28;20151;-73
2022/06/16 00:48:38;;;;;;;4.38;1.73;;;15.80;99.90;;;;;;4984480;28;20035;-74
2022/06/16 00:51:25;;;;;;;3.72;1.65;;;15.80;99.90;;;;;;4983435;28;20109;-74
2022/06/16 00:53:58;;;;;;;2.97;1.45;;;15.80;99.90;;;;;;4986233;28;20022;-74
2022/06/16 00:56:24;;;;;;;4.53;1.83;;;15.80;99.90;;;;;;4987757;28;20430;-75
2022/06/16 00:58:58;;;;;;;3.90;1.40;;;15.80;99.90;;;;;;4981526;28;20110;-76
2022/06/16 01:01:25;;;;;;;4.18;1.85;;;15.70;99.90;;;;;;4984369;28;20077;-75
2022/06/16 01:06:37;;;;;;;3.05;1.50;;;15.70;99.90;;;;;;4982959;28;20355;-74
2022/06/16 01:09:25;;;;;;;4.55;1.88;;;15.60;99.90;;;;;;4987120;28;20038;-75
2022/06/16 01:15:27;;;;;;;5.18;1.65;;;15.60;99.90;;;;;;4989612;28;20023;-74
2022/06/16 01:18:01;;;;;;;3.05;1.75;;;15.50;99.90;;;;;;4984246;28;20038;-74
2022/06/16 01:20:45;;;;;;;4.03;1.50;;;15.50;99.90;;;;;;4983778;28;20030;-74
2022/06/16 01:23:17;;;;;;;2.33;1.17;;;15.50;99.90;;;;;;4985864;28;20026;-74
2022/06/16 01:25:51;;;;;;;4.88;2.00;;;15.50;99.90;;;;;;4981598;28;20026;-75
2022/06/16 01:28:20;;;;;;;2.03;1.60;;;15.40;99.90;;;;;;4982664;28;20030;-75
2022/06/16 01:31:12;;;;;;;3.30;1.65;;;15.40;99.90;;;;;;4987619;28;20034;-75
2022/06/16 01:33:45;;;;;;;4.25;1.90;;;15.40;99.90;;;;;;4985278;28;20030;-75
2022/06/16 01:36:51;;;;;;;3.15;1.73;;;15.40;99.90;;;;;;4987501;28;20116;-75
2022/06/16 01:39:26;;;;;;;4.50;2.00;;;15.30;99.90;;;;;;4985113;28;20133;-75
2022/06/16 01:42:02;;;;;;;3.08;1.83;;;15.40;99.90;;;;;;4966007;28;20058;-75
2022/06/16 01:44:40;;;;;;;2.53;1.48;;;15.30;99.90;;;;;;4986456;28;20033;-75
2022/06/16 01:47:11;;;;;;;2.97;1.50;;;15.30;99.90;;;;;;4984253;28;20105;-73
2022/06/16 01:50:15;;;;;;;4.38;1.98;;;15.30;99.90;;;;;;4979837;28;20066;-74
2022/06/16 01:52:54;;;;;;;2.70;1.70;;;15.30;99.90;;;;;;4967991;28;20057;-73
2022/06/16 01:55:29;;;;;;;3.42;1.50;;;15.30;99.90;;;;;;4948693;28;20085;-74
2022/06/16 01:58:05;;;;;;;2.17;1.52;;;15.20;99.90;;;;;;4985226;28;20034;-74
2022/06/16 02:00:33;;;;;;;3.35;1.50;;;15.20;99.90;;;;;;4984963;28;20045;-74
2022/06/16 02:03:10;;;;;;;4.63;1.80;;;15.20;99.90;;;;;;4984244;28;20388;-73
2022/06/16 02:05:56;;;;;;;4.78;2.03;;;15.20;99.90;;;;;;4981054;28;20029;-73
2022/06/16 02:08:28;;;;;;;4.15;1.52;;;15.20;99.90;;;;;;4978562;28;20031;-73
2022/06/16 02:11:17;;;;;;;3.70;2.17;;;15.20;99.90;;;;;;4987470;28;20036;-74
2022/06/16 02:13:54;;;;;;;3.28;1.63;;;15.20;99.90;;;;;;4982808;28;20042;-73
2022/06/16 02:16:28;;;;;;;3.08;1.67;;;15.20;99.90;;;;;;4981784;28;20099;-74
2022/06/16 02:18:56;;;;;;;3.97;1.70;;;15.20;99.90;;;;;;4985686;28;20027;-74
2022/06/16 02:21:35;;;;;;;4.57;1.70;;;15.20;99.90;;;;;;4983922;28;20026;-74
2022/06/16 02:24:02;;;;;;;3.35;2.10;;;15.20;99.90;;;;;;4986912;28;20109;-74
2022/06/16 02:26:28;;;;;;;3.50;1.70;;;15.10;99.90;;;;;;4985711;28;20026;-74
2022/06/16 02:28:57;;;;;;;3.58;1.58;;;15.20;99.90;;;;;;4985495;28;20450;-74
2022/06/16 02:31:51;;;;;;;6.38;1.90;;;15.20;99.90;;;;;;4982747;28;20046;-74
2022/06/16 02:34:37;;;;;;;4.28;2.15;;;15.20;99.90;;;;;;4971398;28;20065;-74
2022/06/16 02:37:02;;;;;;;4.07;2.05;;;15.20;99.90;;;;;;4984719;28;20033;-74
2022/06/16 02:39:47;;;;;;;2.63;1.88;;;15.10;99.90;;;;;;4984081;28;20039;-74
2022/06/16 02:42:22;;;;;;;4.60;1.95;;;15.10;99.90;;;;;;4984320;28;20037;-74
2022/06/16 02:45:05;;;;;;;3.03;1.70;;;15.10;99.90;;;;;;4981470;28;20117;-74
2022/06/16 02:47:59;;;;;;;4.50;2.00;;;15.10;99.90;;;;;;4984011;28;20045;-74
2022/06/16 02:50:58;;;;;;;4.60;2.50;;;15.00;99.90;;;;;;4979754;28;20054;-73
2022/06/16 02:56:55;;;;;;;3.97;1.98;;;15.00;99.90;;;;;;4982918;28;20478;-75
2022/06/16 02:59:35;;;;;;;3.10;1.60;;;15.00;99.90;;;;;;4981673;28;20434;-74
2022/06/16 03:02:04;;;;;;;4.20;1.90;;;15.00;99.90;;;;;;4982083;28;20412;-74
2022/06/16 03:04:40;;;;;;;4.63;2.22;;;15.00;99.90;;;;;;4983513;28;20484;-74
2022/06/16 03:07:07;;;;;;;2.60;1.70;;;15.00;99.90;;;;;;4985665;28;20104;-74
2022/06/16 03:09:33;;;;;;;3.95;2.00;;;14.90;99.90;;;;;;4980862;28;20047;-74
2022/06/16 03:11:59;;;;;;;4.28;2.15;;;14.90;99.90;;;;;;4980077;28;20035;-74
2022/06/16 03:14:25;;;;;;;7.07;2.40;;;15.00;99.90;;;;;;4984707;28;20054;-74
2022/06/16 03:16:51;;;;;;;5.78;2.55;;;14.90;99.90;;;;;;4980220;28;20034;-74
2022/06/16 03:19:18;;;;;;;5.78;1.70;;;14.90;99.90;;;;;;4983647;28;20653;-74
2022/06/16 03:21:44;;;;;;;3.78;1.85;;;14.90;99.90;;;;;;4981936;28;20049;-74
2022/06/16 03:24:10;;;;;;;3.13;1.60;;;14.90;99.90;;;;;;4968902;28;20042;-74
2022/06/16 03:26:36;;;;;;;3.03;1.77;;;14.90;99.90;;;;;;4980867;28;20029;-74
2022/06/16 03:29:01;;;;;;;3.67;2.10;;;14.90;99.90;;;;;;4983349;28;20045;-74
2022/06/16 03:31:27;;;;;;;3.60;1.90;;;14.90;99.90;;;;;;4983717;28;20026;-74
2022/06/16 03:33:52;;;;;;;5.50;2.40;;;14.90;99.90;;;;;;4987851;28;20066;-74
2022/06/16 03:36:19;;;;;;;4.35;1.90;;;14.90;99.90;;;;;;4987954;28;20026;-76
2022/06/16 03:38:45;;;;;;;3.38;1.90;;;14.90;99.90;;;;;;4984497;28;20037;-74
2022/06/16 03:41:12;;;;;;;4.88;2.00;;;14.90;99.90;;;;;;4987192;28;20402;-74
2022/06/16 03:43:38;;;;;;;4.00;1.80;;;14.90;99.90;;;;;;4988952;28;20053;-75
2022/06/16 03:46:04;;;;;;;3.63;2.00;;;14.90;99.90;;;;;;4989194;28;20030;-75
2022/06/16 03:48:30;;;;;;;4.25;1.85;;;15.00;99.90;;;;;;4984025;28;20045;-75
2022/06/16 03:50:56;;;;;;;3.08;1.95;;;15.00;99.90;;;;;;4986966;28;20042;-74
2022/06/16 03:53:21;;;;;;;5.63;2.03;;;14.90;99.90;;;;;;4987605;28;20038;-74
2022/06/16 03:55:47;;;;;;;4.07;1.90;;;14.90;99.90;;;;;;4981282;28;20030;-74
2022/06/16 03:58:16;;;;;;;2.67;2.10;;;14.90;99.90;;;;;;4985488;28;20031;-73
2022/06/16 04:00:42;;;;;;;3.30;2.10;;;14.90;99.90;;;;;;4989286;28;20101;-74
2022/06/16 04:05:53;;;;;;;3.95;2.08;;;15.00;99.90;;;;;;4987053;28;20023;-74
2022/06/16 04:08:19;;;;;;;5.40;1.88;;;15.00;99.90;;;;;;4986959;28;20375;-74
2022/06/16 04:10:46;;;;;;;4.00;1.98;;;15.00;99.90;;;;;;4984264;28;20414;-74
2022/06/16 04:13:13;;;;;;;3.97;2.10;;;15.00;99.90;;;;;;4985955;28;20443;-73
2022/06/16 04:15:42;;;;;;;7.53;2.30;;;15.00;99.90;;;;;;4987720;28;20352;-74
2022/06/16 04:18:08;;;;;;;3.80;1.77;;;15.00;99.90;;;;;;4987886;28;20031;-73
2022/06/16 04:20:34;;;;;;;5.32;2.55;;;15.00;99.90;;;;;;4989298;28;20494;-74
2022/06/16 04:23:00;;;;;;;4.15;2.28;;;15.10;99.90;;;;;;4988360;28;20566;-74
2022/06/16 04:25:30;;;;;;;3.78;2.20;;;15.00;99.90;;;;;;4985935;28;20126;-74
2022/06/16 04:27:57;;;;;;;3.53;2.30;;;14.90;99.90;;;;;;4982298;28;20045;-75
2022/06/16 04:30:23;;;;;;;5.47;2.22;;;15.00;99.90;;;;;;4982547;28;20453;-74
2022/06/16 04:32:49;;;;;;;4.70;2.30;;;15.00;99.90;;;;;;4994750;28;20118;-76
2022/06/16 04:35:15;;;;;;;7.57;2.70;;;14.90;99.90;;;;;;4982392;28;20062;-73
2022/06/16 04:37:40;;;;;;;7.10;2.60;;;14.90;99.90;;;;;;4988386;28;20022;-74
2022/06/16 04:40:10;;;;;;;3.55;2.40;;;15.00;99.90;;;;;;4982685;28;20114;-74
2022/06/16 04:42:36;;;;;;;4.63;2.13;;;15.00;99.90;;;;;;4987967;28;20113;-74
2022/06/16 04:45:01;;;;;;;5.32;2.50;;;15.00;99.90;;;;;;4983460;28;20109;-74
2022/06/16 04:47:27;;;;;;;4.75;2.60;;;15.10;99.90;;;;;;4969086;28;20033;-74
2022/06/16 04:49:53;;;;;;;4.32;2.72;;;15.10;99.90;;;;;;4979759;28;20036;-74
2022/06/16 04:52:18;;;;;;;5.03;2.53;;;15.10;99.90;;;;;;4973187;28;20018;-74
2022/06/16 04:54:45;;;;;;;5.32;2.53;;;15.20;99.90;;;;;;4980027;28;20072;-74
2022/06/16 04:57:12;;;;;;;8.15;2.42;;;15.20;99.90;;;;;;4971462;28;20456;-73
2022/06/16 04:59:38;;;;;;;6.70;2.50;;;15.20;99.90;;;;;;4984083;28;20109;-74
2022/06/16 05:02:04;;;;;;;6.68;2.85;;;15.30;99.90;;;;;;4982342;28;20113;-75
2022/06/16 05:04:29;;;;;;;5.70;2.60;;;15.30;99.90;;;;;;4987290;28;20513;-73
2022/06/16 05:06:56;;;;;;;9.82;2.35;;;15.30;99.90;;;;;;4971122;28;20050;-74
2022/06/16 05:09:23;;;;;;;5.20;2.40;;;15.30;99.90;;;;;;4980700;28;20200;-74
2022/06/16 05:11:50;;;;;;;6.18;2.78;;;15.30;99.90;;;;;;4981820;28;20045;-74
2022/06/16 05:14:16;;;;;;;10.48;3.30;;;15.40;99.90;;;;;;4980835;28;20045;-75
2022/06/16 05:16:41;;;;;;;4.57;2.65;;;15.40;99.90;;;;;;4979935;28;20415;-74
2022/06/16 05:19:07;;;;;;;6.88;2.90;;;15.50;99.90;;;;;;4982923;28;20027;-73
2022/06/16 05:21:33;;;;;;;5.90;2.97;;;15.50;99.90;;;;;;4982161;28;20145;-74
2022/06/16 05:23:59;;;;;;;6.10;2.97;;;15.50;99.90;;;;;;4982714;28;20033;-75
2022/06/16 05:26:25;;;;;;;6.03;3.00;;;15.50;99.90;;;;;;4976026;28;20030;-75
2022/06/16 05:28:51;;;;;;;3.80;2.60;;;15.60;99.90;;;;;;4974152;28;20033;-74
2022/06/16 05:31:17;;;;;;;5.45;2.85;;;15.50;99.90;;;;;;4980471;28;20037;-73
2022/06/16 05:33:43;;;;;;;6.45;3.40;;;15.60;99.90;;;;;;4981323;28;20018;-74
2022/06/16 05:36:11;;;;;;;4.90;3.10;;;15.50;99.90;;;;;;4983730;28;20101;-74
2022/06/16 05:38:38;;;;;;;3.88;2.40;;;15.50;99.90;;;;;;4973017;28;20046;-75
2022/06/16 05:41:13;;;;;;;4.47;2.50;;;15.50;99.90;;;;;;4979485;28;20030;-73
2022/06/16 05:43:39;;;;;;;7.32;3.05;;;15.50;99.90;;;;;;4971854;28;20026;-75
2022/06/16 05:46:06;;;;;;;4.22;3.05;;;15.50;99.90;;;;;;4975977;28;20078;-75
2022/06/16 05:48:32;;;;;;;6.32;3.10;;;15.50;99.90;;;;;;4979543;28;20517;-74
2022/06/16 05:51:06;;;;;;;4.63;2.63;;;15.50;99.90;;;;;;4984236;28;20053;-74
2022/06/16 05:53:32;;;;;;;5.82;2.92;;;15.60;99.90;;;;;;4986867;28;20050;-74
2022/06/16 05:55:58;;;;;;;4.97;3.25;;;15.50;99.90;;;;;;4987878;28;20064;-74
2022/06/16 05:58:24;;;;;;;5.65;2.95;;;15.50;99.90;;;;;;4974104;28;20026;-74
2022/06/16 06:00:50;;;;;;;10.13;3.08;;;15.50;99.90;;;;;;4983150;28;20065;-74
2022/06/16 06:03:16;;;;;;;8.40;2.70;;;15.50;99.90;;;;;;4988814;28;20113;-75
2022/06/16 06:05:42;;;;;;;5.03;2.40;;;15.60;99.90;;;;;;4986072;28;20101;-72
2022/06/16 06:16:26;;;;;;;8.30;2.67;;;15.70;99.90;;;;;;4967884;28;20030;-74
2022/06/16 06:18:57;;;;;;;3.53;2.50;;;15.80;99.90;;;;;;4980753;28;20045;-74
2022/06/16 06:24:09;;;;;;;9.25;2.80;;;15.70;99.90;;;;;;4973670;28;20026;-72
2022/06/16 06:26:35;;;;;;;6.53;2.85;;;15.70;99.90;;;;;;4981061;28;20026;-73
2022/06/16 06:29:01;;;;;;;5.55;2.65;;;15.70;99.90;;;;;;4973741;28;20523;-71
2022/06/16 06:31:26;;;;;;;6.32;3.08;;;15.70;99.90;;;;;;4977077;28;20034;-72
2022/06/16 06:33:53;;;;;;;7.82;2.60;;;15.90;99.90;;;;;;4983609;28;20117;-72
2022/06/16 06:36:19;;;;;;;7.53;2.55;;;16.00;99.90;;;;;;4983979;28;20027;-71
2022/06/16 06:38:45;;;;;;;5.78;2.10;;;16.00;99.90;;;;;;4979771;28;20026;-71
2022/06/16 06:41:11;;;;;;;5.47;2.47;;;16.10;99.90;;;;;;4983252;28;20153;-73
2022/06/16 06:43:36;;;;;;;4.68;2.33;;;16.20;99.90;;;;;;4979519;28;20089;-73
2022/06/16 06:46:03;;;;;;;5.85;2.75;;;16.30;99.90;;;;;;4978886;28;20031;-71
2022/06/16 06:48:31;;;;;;;5.22;2.15;;;16.30;99.90;;;;;;4979419;28;20101;-70
2022/06/16 06:50:56;;;;;;;4.53;2.33;;;16.40;99.90;;;;;;4982832;28;20045;-72
2022/06/16 06:53:22;;;;;;;6.22;2.10;;;16.50;99.90;;;;;;4982326;28;20109;-71
2022/06/16 06:55:49;;;;;;;4.18;1.83;;;16.50;99.90;;;;;;4982036;28;20101;-72
2022/06/16 06:58:20;;;;;;;6.72;2.03;;;16.50;99.90;;;;;;4988857;28;20033;-72
2022/06/16 07:00:46;;;;;;;4.50;1.60;;;16.60;99.90;;;;;;4969089;28;20030;-71
2022/06/16 07:03:12;;;;;;;2.13;1.25;;;16.70;99.90;;;;;;4978771;28;20080;-72
2022/06/16 07:05:38;;;;;;;4.72;1.80;;;16.80;99.90;;;;;;4992640;28;20526;-71
2022/06/16 07:08:06;;;;;;;6.60;2.05;;;16.90;99.90;;;;;;4987545;28;20056;-71
2022/06/16 07:10:32;;;;;;;4.38;1.67;;;17.20;99.90;;;;;;4979490;28;20037;-71
2022/06/16 07:12:58;;;;;;;6.35;1.80;;;17.20;99.90;;;;;;4986025;28;20053;-71
2022/06/16 07:15:24;;;;;;;2.67;1.70;;;17.30;99.90;;;;;;4980391;28;20394;-72
2022/06/16 07:17:50;;;;;;;5.88;1.77;;;17.40;99.90;;;;;;4985003;28;20026;-70
2022/06/16 07:20:16;;;;;;;3.88;1.45;;;17.60;99.90;;;;;;4980460;28;20026;-70
2022/06/16 07:22:44;;;;;;;4.10;1.60;;;17.70;99.90;;;;;;4986874;28;20033;-71
2022/06/16 07:25:10;;;;;;;4.57;1.60;;;17.80;99.90;;;;;;4982345;28;20117;-71
2022/06/16 07:27:36;;;;;;;10.95;6.65;;;17.80;99.90;;;;;;4988630;28;20536;-70
2022/06/16 07:30:13;;;;;;;6.70;3.08;;;17.80;99.90;;;;;;4990948;28;20359;-71
2022/06/16 07:32:38;;;;;;;3.90;1.80;;;17.80;99.90;;;;;;4987288;28;20640;-71
2022/06/16 07:35:04;;;;;;;4.65;1.55;;;18.00;99.90;;;;;;4985915;28;20061;-71
2022/06/16 07:37:30;;;;;;;4.45;1.60;;;18.00;99.90;;;;;;4991607;28;20065;-71
2022/06/16 07:39:57;;;;;;;5.05;1.40;;;18.10;99.90;;;;;;4990399;28;20399;-72
2022/06/16 07:42:22;;;;;;;2.67;1.60;;;18.10;99.90;;;;;;4991503;28;20057;-71
2022/06/16 07:44:48;;;;;;;4.40;1.58;;;18.20;99.90;;;;;;4988438;28;20486;-70
2022/06/16 07:47:14;;;;;;;3.53;1.40;;;18.20;99.90;;;;;;4990936;28;20128;-71
2022/06/16 07:49:39;;;;;;;4.13;1.75;;;18.20;99.90;;;;;;4990052;28;20097;-71
2022/06/16 07:52:05;;;;;;;5.25;1.60;;;18.10;99.90;;;;;;4986287;28;20037;-71
2022/06/16 07:54:31;;;;;;;3.80;1.45;;;18.10;99.90;;;;;;4989199;28;20026;-74
2022/06/16 07:56:57;;;;;;;5.53;1.20;;;18.20;99.90;;;;;;4991409;28;20045;-74
2022/06/16 07:59:23;;;;;;;3.47;1.52;;;18.20;99.90;;;;;;4989634;28;20030;-74
2022/06/16 08:01:49;;;;;;;5.07;2.70;;;18.30;99.90;;;;;;4986559;28;20563;-75
2022/06/16 08:04:15;;;;;;;4.95;1.27;;;18.30;99.90;;;;;;4988302;28;20222;-74
2022/06/16 08:06:41;;;;;;;5.03;1.48;;;18.30;99.90;;;;;;4979470;28;20045;-75
2022/06/16 08:09:10;;;;;;;3.75;1.10;;;18.30;99.90;;;;;;4984691;28;20120;-74
2022/06/16 08:14:21;;;;;;;5.38;1.75;;;18.20;99.80;;;;;;4990121;28;20027;-75
2022/06/16 08:16:47;;;;;;;3.53;1.48;;;18.10;99.70;;;;;;4987650;28;20022;-74
2022/06/16 08:19:12;;;;;;;2.97;0.95;;;18.10;99.90;;;;;;4983096;28;20035;-75
2022/06/16 08:21:38;;;;;;;4.20;1.15;;;18.20;99.10;;;;;;4967330;28;20046;-73
2022/06/16 08:24:06;;;;;;;4.13;1.35;;;18.20;98.80;;;;;;4978838;28;20741;-74
2022/06/16 08:26:32;;;;;;;2.50;1.10;;;18.30;98.70;;;;;;4966686;28;20415;-74
2022/06/16 08:28:59;;;;;;;2.90;1.38;;;18.30;98.90;;;;;;4986571;28;20026;-75
2022/06/16 08:31:25;;;;;;;6.35;1.30;;;18.30;99.00;;;;;;4983784;28;20034;-75
2022/06/16 08:33:52;;;;;;;2.03;0.90;;;18.40;98.20;;;;;;4985287;28;20372;-74
2022/06/16 08:36:19;;;;;;;2.20;0.90;;;18.40;98.20;;;;;;4982235;28;20030;-75
2022/06/16 08:38:45;;;;;;;2.95;1.02;;;18.40;97.90;;;;;;4978385;28;20039;-73
2022/06/16 08:41:17;;;;;;;2.13;0.93;;;18.40;97.10;;;;;;4982846;28;20026;-74
2022/06/16 08:44:21;;;;;;;2.75;0.93;;;18.50;96.40;;;;;;4981095;28;20407;-74
2022/06/16 08:47:00;;;;;;;1.60;0.82;;;18.40;96.50;;;;;;4979178;28;20039;-75
2022/06/16 08:49:58;;;;;;;2.42;0.80;;;18.40;96.60;;;;;;4983983;28;20172;-75
2022/06/16 08:52:33;;;;;;;2.25;0.98;;;18.50;96.30;;;;;;4986397;28;20085;-75
2022/06/16 08:55:24;;;;;;;2.85;1.10;;;18.60;95.60;;;;;;4981715;28;20081;-74
2022/06/16 08:58:01;;;;;;;2.20;0.90;;;18.60;95.60;;;;;;4987561;28;20524;-74
2022/06/16 09:00:32;;;;;;;2.08;0.98;;;18.70;95.10;;;;;;4982374;28;20454;-74
2022/06/16 09:03:09;;;;;;;;;;;18.60;95.30;;;;;;4985335;28;20038;-74
2022/06/16 09:06:10;;;;;;;2.60;0.90;;;18.60;94.90;;;;;;4986878;28;19949;-74
2022/06/16 09:09:01;;;;;;;2.75;0.90;;;18.70;95.20;;;;;;4981682;28;20068;-74
2022/06/16 09:11:42;;;;;;;3.87;2.03;;;18.60;95.50;;;;;;4988475;28;20109;-75
2022/06/16 09:17:22;;;;;;;5.22;1.02;;;18.80;94.90;;;;;;4988026;28;20049;-74
2022/06/16 09:19:57;;;;;;;2.03;0.90;;;18.90;94.00;;;;;;4982627;28;20029;-74
2022/06/16 09:22:42;;;;;;;2.13;0.93;;;18.90;93.80;;;;;;4985478;28;20045;-73
2022/06/16 09:25:17;;;;;;;2.17;0.80;;;19.00;93.30;;;;;;4969297;28;20039;-74
2022/06/16 09:27:56;;;;;;;3.70;0.85;;;19.10;92.90;;;;;;4983412;28;20022;-75
2022/06/16 09:30:27;;;;;;;2.03;0.65;;;19.10;93.00;;;;;;4998218;28;20069;-75
2022/06/16 09:33:06;;;;;;;3.33;1.10;;;19.20;93.30;;;;;;4987144;28;20090;-75
2022/06/16 09:35:41;;;;;;;3.72;1.23;;;19.20;93.40;;;;;;4981785;28;20053;-75
2022/06/16 09:38:30;;;;;;;1.92;1.13;;;19.20;93.10;;;;;;4984859;28;20022;-75
2022/06/16 09:40:58;;;;;;;3.97;0.85;;;19.30;93.20;;;;;;4990541;28;20034;-75
2022/06/16 09:43:37;;;;;;;1.23;0.60;;;19.30;92.90;;;;;;4985319;28;20034;-75
2022/06/16 09:46:32;;;;;;;3.88;1.02;;;19.30;93.30;;;;;;4983687;28;20030;-75
2022/06/16 09:49:10;;;;;;;1.70;0.95;;;19.40;93.20;;;;;;4985421;28;20042;-75
2022/06/16 09:51:51;;;;;;;3.25;0.80;;;19.50;92.10;;;;;;4984685;28;20045;-75
2022/06/16 09:54:25;;;;;;;6.50;1.33;;;19.40;92.70;;;;;;4968554;28;20035;-76
2022/06/16 09:57:08;;;;;;;3.10;1.10;;;19.50;92.40;;;;;;4986960;28;20029;-75
2022/06/16 10:00:09;;;;;;;3.58;1.10;;;19.60;92.30;;;;;;4983251;28;20458;-75
2022/06/16 10:03:01;;;;;;;2.63;1.37;;;19.60;92.10;;;;;;4977689;28;20076;-75
2022/06/16 10:05:57;;;;;;;3.55;1.20;;;19.60;91.60;;;;;;4973067;28;20294;-77
2022/06/16 10:08:59;;;;;;;2.45;1.00;;;19.70;92.20;;;;;;4975458;28;20129;-77
2022/06/16 10:11:48;;;;;;;1.45;0.93;;;19.70;92.70;;;;;;4988883;28;20040;-76
2022/06/16 10:14:21;;;;;;;2.60;1.05;;;19.80;92.20;;;;;;4985455;28;20022;-75
2022/06/16 10:16:58;;;;;;;3.25;0.90;;;19.90;91.20;;;;;;4983036;28;20031;-77
2022/06/16 10:19:29;;;;;;;5.18;1.00;;;19.80;91.20;;;;;;4975585;28;20047;-75
2022/06/16 10:21:55;;;;;;;3.25;1.13;;;19.80;91.00;;;;;;4987253;28;20030;-76
2022/06/16 10:24:25;;;;;;;3.80;1.10;;;19.80;90.90;;;;;;4987326;28;20041;-75
2022/06/16 10:26:52;;;;;;;3.50;1.42;;;19.80;90.90;;;;;;4988513;28;20040;-75
2022/06/16 10:29:27;;;;;;;2.78;1.05;;;19.90;91.40;;;;;;4985105;28;20449;-74
2022/06/16 10:31:55;;;;;;;3.35;1.02;;;20.00;91.20;;;;;;4985662;28;20440;-77
2022/06/16 10:34:32;;;;;;;2.83;1.05;;;19.90;91.20;;;;;;4986947;28;20106;-75
2022/06/16 10:37:21;;;;;;;3.55;1.40;;;19.90;91.70;;;;;;4987515;28;20026;-76
2022/06/16 10:39:58;;;;;;;3.33;1.13;;;19.90;91.70;;;;;;4979246;28;20037;-75
2022/06/16 10:42:41;;;;;;;2.88;0.90;;;19.90;91.40;;;;;;4979691;28;20586;-76
2022/06/16 10:45:21;;;;;;;1.38;0.70;;;20.00;90.20;;;;;;4978779;28;20027;-77
2022/06/16 10:47:53;;;;;;;2.85;0.90;;;20.10;89.60;;;;;;4964763;28;20113;-75
2022/06/16 10:50:31;;;;;;;3.60;1.00;;;20.20;88.10;;;;;;4981819;28;20034;-75
2022/06/16 10:53:14;;;;;;;2.38;0.90;;;20.30;90.10;;;;;;4978195;28;20050;-75
2022/06/16 10:55:46;;;;;;;3.53;1.20;;;20.40;90.20;;;;;;4983424;28;20053;-76
2022/06/16 10:58:25;;;;;;;3.05;1.50;;;20.60;89.70;;;;;;4977646;28;20034;-74
2022/06/16 11:01:15;;;;;;;1.92;1.17;;;20.80;89.60;;;;;;4982424;28;20022;-74
2022/06/16 11:03:44;;;;;;;4.72;1.02;;;21.00;87.50;;;;;;4979937;28;20499;-75
2022/06/16 11:06:13;;;;;;;3.35;1.02;;;21.10;84.60;;;;;;4980037;28;20030;-77
2022/06/16 11:08:44;;;;;;;3.42;0.98;;;21.00;85.30;;;;;;4974498;28;20030;-74
2022/06/16 11:11:11;;;;;;;2.45;0.73;;;21.10;84.40;;;;;;4982083;28;20035;-76
2022/06/16 11:13:45;;;;;;;4.00;1.45;;;21.40;82.10;;;;;;4979436;28;21102;-74
2022/06/16 11:16:28;;;;;;;3.65;1.00;;;21.60;81.10;;;;;;4980846;28;20038;-76
2022/06/16 11:18:58;;;;;;;3.40;1.05;;;22.00;81.80;;;;;;4980495;28;20368;-74
2022/06/16 11:21:32;;;;;;;2.38;0.90;;;23.00;78.10;;;;;;4983376;28;20023;-74
2022/06/16 11:24:01;;;;;;;2.38;0.82;;;24.40;72.40;;;;;;4978785;28;20057;-75
2022/06/16 11:26:33;;;;;;;2.90;1.10;;;26.20;63.90;;;;;;4982999;28;20057;-75
2022/06/16 11:29:11;;;;;;;2.15;0.90;;;27.80;57.30;;;;;;4982490;28;20051;-76
2022/06/16 11:31:41;;;;;;;3.85;1.00;;;29.00;53.50;;;;;;5000925;28;20027;-75
2022/06/16 11:34:11;;;;;;;2.97;0.82;;;29.00;51.70;;;;;;4970369;28;20038;-74
2022/06/16 11:37:08;;;;;;;4.23;1.10;;;29.70;51.80;;;;;;4976986;28;20038;-74
2022/06/16 11:39:36;;;;;;;2.55;0.95;;;31.10;46.50;;;;;;4983048;28;20113;-74
2022/06/16 11:42:05;;;;;;;4.28;1.52;;;30.20;45.10;;;;;;4986918;28;20057;-74
2022/06/16 11:44:51;;;;;;;3.72;1.20;;;28.40;46.20;;;;;;4980833;28;20026;-76
2022/06/16 11:47:40;;;;;;;1.73;1.05;;;29.00;47.80;;;;;;4989137;28;20022;-74
2022/06/16 11:50:18;;;;;;;2.53;1.00;;;31.10;46.20;;;;;;4988231;28;20182;-76
2022/06/16 11:52:59;;;;;;;2.20;0.98;;;32.90;44.00;;;;;;4992238;28;20107;-76
2022/06/16 11:55:35;;;;;;;2.85;1.23;;;32.20;42.60;;;;;;4980158;28;20106;-75
2022/06/16 11:58:12;;;;;;;2.40;0.90;;;31.00;43.20;;;;;;4981411;28;20948;-74
2022/06/16 12:00:47;;;;;;;2.42;0.90;;;31.00;43.40;;;;;;4989190;28;20022;-75
2022/06/16 12:03:52;;;;;;;3.47;1.00;;;31.50;43.40;;;;;;4981625;28;20026;-76
2022/06/16 12:06:36;;;;;;;110.93;99.10;;;32.00;41.70;;;;;;4987374;28;20042;-75
2022/06/16 12:09:25;;;;;;;75.00;62.42;;;31.70;42.70;;;;;;4986465;28;20026;-74
2022/06/16 12:12:03;;;;;;;10.50;6.93;;;30.90;42.60;;;;;;4983616;28;20493;-75
2022/06/16 12:15:08;;;;;;;35.75;27.50;;;30.70;44.10;;;;;;4977371;28;20101;-75
2022/06/16 12:17:57;;;;;;;3.03;1.50;;;31.60;43.30;;;;;;4973331;28;20057;-74
2022/06/16 12:20:39;;;;;;;2.55;0.90;;;32.10;43.90;;;;;;4984875;28;20038;-74
2022/06/16 12:23:23;;;;;;;1.80;0.93;;;32.80;42.40;;;;;;4985006;28;20026;-75
2022/06/16 12:26:18;;;;;;;3.00;1.13;;;33.00;40.50;;;;;;4968715;28;20058;-75
2022/06/16 12:28:59;;;;;;;2.40;0.90;;;31.60;40.80;;;;;;4956864;28;20522;-75
2022/06/16 12:31:34;;;;;;;4.60;1.00;;;30.00;43.20;;;;;;4950883;28;20177;-75
2022/06/16 12:34:05;;;;;;;4.20;1.45;;;28.70;44.00;;;;;;4968142;28;20030;-75
2022/06/16 12:36:38;;;;;;;4.35;0.90;;;27.70;45.30;;;;;;4964498;28;20538;-75
2022/06/16 12:39:24;;;;;;;2.30;1.00;;;26.70;46.30;;;;;;4958615;28;20859;-78
2022/06/16 12:41:54;;;;;;;2.45;0.90;;;26.30;46.50;;;;;;4939251;28;20035;-75
2022/06/16 12:44:31;;;;;;;2.77;0.77;;;25.50;48.10;;;;;;4966258;28;20031;-75
2022/06/16 12:47:22;;;;;;;3.92;1.10;;;25.10;49.20;;;;;;4949941;28;20047;-76
2022/06/16 12:50:05;;;;;;;2.25;0.93;;;25.00;49.80;;;;;;4962301;28;20449;-75
2022/06/16 12:52:49;;;;;;;1.73;0.85;;;25.40;49.90;;;;;;4968646;28;20049;-76
2022/06/16 12:55:37;;;;;;;1.80;0.85;;;27.20;49.20;;;;;;4962567;28;20187;-75
2022/06/16 12:58:33;;;;;;;1.20;0.70;;;29.00;46.00;;;;;;4959497;28;20038;-76
2022/06/16 13:01:05;;;;;;;2.50;1.00;;;28.90;43.50;;;;;;4960377;28;20049;-76
2022/06/16 13:03:47;;;;;;;2.00;0.80;;;27.80;44.80;;;;;;4967408;28;20022;-75
2022/06/16 13:06:16;;;;;;;3.05;1.33;;;27.10;46.20;;;;;;4990544;28;20045;-76
2022/06/16 13:08:48;;;;;;;4.03;1.30;;;26.70;47.50;;;;;;4984050;28;20026;-76
2022/06/16 13:11:19;;;;;;;3.67;1.27;;;26.80;48.80;;;;;;4980600;28;20062;-75
2022/06/16 13:13:47;;;;;;;;;;;28.50;48.50;;;;;;4984435;28;20490;-75
2022/06/16 13:16:18;;;;;;;1.50;0.80;;;30.40;45.00;;;;;;4968732;28;19961;-76
2022/06/16 13:18:50;;;;;;;2.22;0.90;;;30.40;43.40;;;;;;4958442;28;20027;-74
2022/06/16 13:21:28;;;;;;;3.95;1.27;;;29.60;42.80;;;;;;4982752;28;20030;-75
2022/06/16 13:24:22;;;;;;;4.50;1.20;;;28.30;44.70;;;;;;4986234;28;20105;-75
2022/06/16 13:27:10;;;;;;;4.60;1.40;;;27.10;46.60;;;;;;4983906;28;20030;-75
2022/06/16 13:29:51;;;;;;;1.58;1.00;;;26.20;48.50;;;;;;4963138;28;20038;-76
2022/06/16 13:32:33;;;;;;;4.13;1.10;;;26.80;48.40;;;;;;4986911;28;20033;-74
2022/06/16 13:35:19;;;;;;;2.47;1.00;;;27.10;46.90;;;;;;4986236;28;20078;-75
2022/06/16 13:38:09;;;;;;;1.85;0.88;;;26.60;47.00;;;;;;4965846;28;20027;-75
2022/06/16 13:40:36;;;;;;;6.03;1.33;;;25.80;48.20;;;;;;4979663;28;20046;-75
2022/06/16 13:43:09;;;;;;;6.07;1.27;;;26.10;50.00;;;;;;4978904;28;20288;-75
2022/06/16 13:45:35;;;;;;;2.70;1.10;;;26.50;49.60;;;;;;4987130;28;20026;-74
2022/06/16 13:48:11;;;;;;;3.70;0.90;;;27.00;49.40;;;;;;4986828;28;20096;-76
2022/06/16 13:50:59;;;;;;;1.75;0.98;;;28.80;47.50;;;;;;4989153;28;20109;-76